sensor_id;sensor_type;location;lat;lon;timestamp;P1;durP1;ratioP1;P2;durP2;ratioP2
211;SDS011;16228;48.800;9.002;2022-12-18T00:01:14;45.37;;;20.17;;
211;SDS011;16228;48.800;9.002;2022-12-18T00:03:43;43.83;;;22.23;;
211;SDS011;16228;48.800;9.002;2022-12-18T00:06:15;38.33;;;19.83;;
211;SDS011;16228;48.800;9.002;2022-12-18T00:08:43;40.23;;;20.07;;
211;SDS011;16228;48.800;9.002;2022-12-18T00:11:11;44.07;;;20.13;;
211;SDS011;16228;48.800;9.002;2022-12-18T00:13:41;37.87;;;20.27;;
211;SDS011;16228;48.800;9.002;2022-12-18T00:16:09;38.47;;;18.17;;
211;SDS011;16228;48.800;9.002;2022-12-18T00:18:37;36.03;;;19.10;;
211;SDS011;16228;48.800;9.002;2022-12-18T00:21:05;40.37;;;18.93;;
211;SDS011;16228;48.800;9.002;2022-12-18T00:23:33;32.70;;;18.60;;
211;SDS011;16228;48.800;9.002;2022-12-18T00:26:03;41.90;;;20.33;;
211;SDS011;16228;48.800;9.002;2022-12-18T00:28:31;47.03;;;22.80;;
211;SDS011;16228;48.800;9.002;2022-12-18T00:31:01;45.13;;;22.70;;
211;SDS011;16228;48.800;9.002;2022-12-18T00:33:28;52.50;;;24.33;;
211;SDS011;16228;48.800;9.002;2022-12-18T00:35:59;56.80;;;24.97;;
211;SDS011;16228;48.800;9.002;2022-12-18T00:38:27;45.73;;;21.23;;
211;SDS011;16228;48.800;9.002;2022-12-18T00:40:54;33.10;;;18.10;;
211;SDS011;16228;48.800;9.002;2022-12-18T00:43:21;44.87;;;19.90;;
211;SDS011;16228;48.800;9.002;2022-12-18T00:45:48;45.77;;;20.10;;
211;SDS011;16228;48.800;9.002;2022-12-18T00:48:16;43.93;;;20.50;;
211;SDS011;16228;48.800;9.002;2022-12-18T00:50:43;43.57;;;20.43;;
211;SDS011;16228;48.800;9.002;2022-12-18T00:53:11;37.43;;;18.87;;
211;SDS011;16228;48.800;9.002;2022-12-18T00:55:38;40.33;;;20.80;;
211;SDS011;16228;48.800;9.002;2022-12-18T00:58:06;35.13;;;18.40;;
211;SDS011;16228;48.800;9.002;2022-12-18T01:00:34;38.40;;;20.00;;
211;SDS011;16228;48.800;9.002;2022-12-18T01:03:01;37.27;;;18.90;;
211;SDS011;16228;48.800;9.002;2022-12-18T01:05:29;39.93;;;20.57;;
211;SDS011;16228;48.800;9.002;2022-12-18T01:07:57;37.90;;;19.57;;
211;SDS011;16228;48.800;9.002;2022-12-18T01:10:25;36.23;;;18.00;;
211;SDS011;16228;48.800;9.002;2022-12-18T01:12:53;38.77;;;19.77;;
211;SDS011;16228;48.800;9.002;2022-12-18T01:15:20;37.93;;;20.63;;
211;SDS011;16228;48.800;9.002;2022-12-18T01:17:47;38.33;;;19.20;;
211;SDS011;16228;48.800;9.002;2022-12-18T01:20:14;42.97;;;20.10;;
211;SDS011;16228;48.800;9.002;2022-12-18T01:22:43;36.43;;;19.80;;
211;SDS011;16228;48.800;9.002;2022-12-18T01:25:10;46.10;;;18.73;;
211;SDS011;16228;48.800;9.002;2022-12-18T01:27:37;37.73;;;19.43;;
211;SDS011;16228;48.800;9.002;2022-12-18T01:30:05;38.77;;;19.77;;
211;SDS011;16228;48.800;9.002;2022-12-18T01:32:33;38.53;;;20.37;;
211;SDS011;16228;48.800;9.002;2022-12-18T01:35:00;38.40;;;19.47;;
211;SDS011;16228;48.800;9.002;2022-12-18T01:37:28;44.70;;;19.30;;
211;SDS011;16228;48.800;9.002;2022-12-18T01:39:56;39.83;;;20.87;;
211;SDS011;16228;48.800;9.002;2022-12-18T01:42:23;39.27;;;19.77;;
211;SDS011;16228;48.800;9.002;2022-12-18T01:45:04;36.17;;;18.90;;
211;SDS011;16228;48.800;9.002;2022-12-18T01:47:34;35.93;;;18.53;;
211;SDS011;16228;48.800;9.002;2022-12-18T01:50:06;39.37;;;19.80;;
211;SDS011;16228;48.800;9.002;2022-12-18T01:52:35;43.23;;;18.43;;
211;SDS011;16228;48.800;9.002;2022-12-18T01:55:08;40.87;;;19.10;;
211;SDS011;16228;48.800;9.002;2022-12-18T01:57:36;34.13;;;19.17;;
211;SDS011;16228;48.800;9.002;2022-12-18T02:00:06;42.57;;;20.07;;
211;SDS011;16228;48.800;9.002;2022-12-18T02:02:35;36.10;;;19.20;;
211;SDS011;16228;48.800;9.002;2022-12-18T02:05:03;37.23;;;19.70;;
211;SDS011;16228;48.800;9.002;2022-12-18T02:07:34;42.87;;;20.40;;
211;SDS011;16228;48.800;9.002;2022-12-18T02:10:13;47.43;;;23.23;;
211;SDS011;16228;48.800;9.002;2022-12-18T02:12:48;46.17;;;22.40;;
211;SDS011;16228;48.800;9.002;2022-12-18T02:15:22;38.63;;;19.60;;
211;SDS011;16228;48.800;9.002;2022-12-18T02:17:54;38.57;;;20.23;;
211;SDS011;16228;48.800;9.002;2022-12-18T02:20:24;43.57;;;22.67;;
211;SDS011;16228;48.800;9.002;2022-12-18T02:23:04;41.63;;;21.27;;
211;SDS011;16228;48.800;9.002;2022-12-18T02:25:43;35.03;;;19.73;;
211;SDS011;16228;48.800;9.002;2022-12-18T02:28:37;38.13;;;21.00;;
211;SDS011;16228;48.800;9.002;2022-12-18T02:31:08;45.63;;;21.27;;
211;SDS011;16228;48.800;9.002;2022-12-18T02:33:41;50.20;;;21.87;;
211;SDS011;16228;48.800;9.002;2022-12-18T02:36:10;39.57;;;20.23;;
211;SDS011;16228;48.800;9.002;2022-12-18T02:38:41;40.40;;;22.37;;
211;SDS011;16228;48.800;9.002;2022-12-18T02:41:10;44.80;;;20.63;;
211;SDS011;16228;48.800;9.002;2022-12-18T02:43:41;40.07;;;20.97;;
211;SDS011;16228;48.800;9.002;2022-12-18T02:46:23;39.13;;;19.23;;
211;SDS011;16228;48.800;9.002;2022-12-18T02:49:01;40.90;;;20.57;;
211;SDS011;16228;48.800;9.002;2022-12-18T02:51:40;40.77;;;19.70;;
211;SDS011;16228;48.800;9.002;2022-12-18T02:54:16;41.47;;;20.73;;
211;SDS011;16228;48.800;9.002;2022-12-18T02:57:04;47.87;;;22.27;;
211;SDS011;16228;48.800;9.002;2022-12-18T02:59:42;39.60;;;20.43;;
211;SDS011;16228;48.800;9.002;2022-12-18T03:02:18;39.47;;;20.17;;
211;SDS011;16228;48.800;9.002;2022-12-18T03:04:50;40.90;;;20.57;;
211;SDS011;16228;48.800;9.002;2022-12-18T03:07:25;43.00;;;20.13;;
211;SDS011;16228;48.800;9.002;2022-12-18T03:09:59;41.20;;;19.00;;
211;SDS011;16228;48.800;9.002;2022-12-18T03:12:28;46.83;;;20.13;;
211;SDS011;16228;48.800;9.002;2022-12-18T03:15:01;41.13;;;21.03;;
211;SDS011;16228;48.800;9.002;2022-12-18T03:17:32;40.97;;;22.13;;
211;SDS011;16228;48.800;9.002;2022-12-18T03:20:02;41.03;;;22.00;;
211;SDS011;16228;48.800;9.002;2022-12-18T03:22:34;39.13;;;19.00;;
211;SDS011;16228;48.800;9.002;2022-12-18T03:25:05;43.93;;;21.17;;
211;SDS011;16228;48.800;9.002;2022-12-18T03:27:35;45.07;;;21.40;;
211;SDS011;16228;48.800;9.002;2022-12-18T03:30:07;38.07;;;20.73;;
211;SDS011;16228;48.800;9.002;2022-12-18T03:32:39;40.47;;;20.37;;
211;SDS011;16228;48.800;9.002;2022-12-18T03:35:10;41.37;;;20.47;;
211;SDS011;16228;48.800;9.002;2022-12-18T03:37:40;38.03;;;19.90;;
211;SDS011;16228;48.800;9.002;2022-12-18T03:40:08;36.30;;;19.60;;
211;SDS011;16228;48.800;9.002;2022-12-18T03:42:37;40.10;;;19.50;;
211;SDS011;16228;48.800;9.002;2022-12-18T03:45:16;39.63;;;19.87;;
211;SDS011;16228;48.800;9.002;2022-12-18T03:47:53;39.00;;;20.13;;
211;SDS011;16228;48.800;9.002;2022-12-18T03:50:27;42.73;;;20.00;;
211;SDS011;16228;48.800;9.002;2022-12-18T03:53:03;37.27;;;20.00;;
211;SDS011;16228;48.800;9.002;2022-12-18T03:55:40;38.33;;;19.43;;
211;SDS011;16228;48.800;9.002;2022-12-18T03:58:09;36.93;;;18.43;;
211;SDS011;16228;48.800;9.002;2022-12-18T04:00:42;42.70;;;20.23;;
211;SDS011;16228;48.800;9.002;2022-12-18T04:03:10;42.03;;;20.27;;
211;SDS011;16228;48.800;9.002;2022-12-18T04:05:39;36.23;;;20.10;;
211;SDS011;16228;48.800;9.002;2022-12-18T04:08:08;39.60;;;19.00;;
211;SDS011;16228;48.800;9.002;2022-12-18T04:10:36;39.37;;;19.70;;
211;SDS011;16228;48.800;9.002;2022-12-18T04:13:03;38.93;;;19.03;;
211;SDS011;16228;48.800;9.002;2022-12-18T04:15:31;38.40;;;18.93;;
211;SDS011;16228;48.800;9.002;2022-12-18T04:18:02;39.33;;;20.50;;
211;SDS011;16228;48.800;9.002;2022-12-18T04:20:29;38.00;;;19.47;;
211;SDS011;16228;48.800;9.002;2022-12-18T04:22:56;39.83;;;20.10;;
211;SDS011;16228;48.800;9.002;2022-12-18T04:25:24;44.17;;;18.90;;
211;SDS011;16228;48.800;9.002;2022-12-18T04:27:51;47.67;;;19.67;;
211;SDS011;16228;48.800;9.002;2022-12-18T04:30:18;31.67;;;17.23;;
211;SDS011;16228;48.800;9.002;2022-12-18T04:32:45;35.57;;;17.87;;
211;SDS011;16228;48.800;9.002;2022-12-18T04:35:14;40.33;;;21.10;;
211;SDS011;16228;48.800;9.002;2022-12-18T04:37:41;38.10;;;19.50;;
211;SDS011;16228;48.800;9.002;2022-12-18T04:40:09;29.77;;;16.97;;
211;SDS011;16228;48.800;9.002;2022-12-18T04:42:37;34.30;;;18.03;;
211;SDS011;16228;48.800;9.002;2022-12-18T04:45:05;34.23;;;17.67;;
211;SDS011;16228;48.800;9.002;2022-12-18T04:47:33;33.93;;;17.27;;
211;SDS011;16228;48.800;9.002;2022-12-18T04:50:01;34.60;;;18.20;;
211;SDS011;16228;48.800;9.002;2022-12-18T04:52:29;31.47;;;16.83;;
211;SDS011;16228;48.800;9.002;2022-12-18T04:54:57;34.70;;;17.47;;
211;SDS011;16228;48.800;9.002;2022-12-18T04:57:24;31.83;;;16.10;;
211;SDS011;16228;48.800;9.002;2022-12-18T04:59:51;26.53;;;16.57;;
211;SDS011;16228;48.800;9.002;2022-12-18T05:02:18;32.00;;;16.33;;
211;SDS011;16228;48.800;9.002;2022-12-18T05:04:45;36.53;;;17.47;;
211;SDS011;16228;48.800;9.002;2022-12-18T05:07:12;32.23;;;15.60;;
211;SDS011;16228;48.800;9.002;2022-12-18T05:09:41;32.10;;;16.03;;
211;SDS011;16228;48.800;9.002;2022-12-18T05:12:08;30.07;;;15.37;;
211;SDS011;16228;48.800;9.002;2022-12-18T05:14:35;33.03;;;15.83;;
211;SDS011;16228;48.800;9.002;2022-12-18T05:17:03;28.07;;;15.23;;
211;SDS011;16228;48.800;9.002;2022-12-18T05:19:30;31.03;;;16.00;;
211;SDS011;16228;48.800;9.002;2022-12-18T05:21:57;27.23;;;14.33;;
211;SDS011;16228;48.800;9.002;2022-12-18T05:24:24;28.53;;;16.03;;
211;SDS011;16228;48.800;9.002;2022-12-18T05:26:53;29.40;;;15.43;;
211;SDS011;16228;48.800;9.002;2022-12-18T05:29:20;25.77;;;15.00;;
211;SDS011;16228;48.800;9.002;2022-12-18T05:31:47;32.77;;;16.10;;
211;SDS011;16228;48.800;9.002;2022-12-18T05:34:14;35.93;;;16.87;;
211;SDS011;16228;48.800;9.002;2022-12-18T05:36:42;29.83;;;14.87;;
211;SDS011;16228;48.800;9.002;2022-12-18T05:39:09;35.23;;;16.87;;
211;SDS011;16228;48.800;9.002;2022-12-18T05:41:36;31.07;;;17.10;;
211;SDS011;16228;48.800;9.002;2022-12-18T05:44:05;34.17;;;18.10;;
211;SDS011;16228;48.800;9.002;2022-12-18T05:46:32;30.50;;;14.93;;
211;SDS011;16228;48.800;9.002;2022-12-18T05:49:00;38.40;;;16.83;;
211;SDS011;16228;48.800;9.002;2022-12-18T05:51:27;32.10;;;16.07;;
211;SDS011;16228;48.800;9.002;2022-12-18T05:53:54;33.93;;;17.60;;
211;SDS011;16228;48.800;9.002;2022-12-18T05:56:22;33.93;;;17.10;;
211;SDS011;16228;48.800;9.002;2022-12-18T05:58:50;34.53;;;17.37;;
211;SDS011;16228;48.800;9.002;2022-12-18T06:01:21;36.30;;;17.47;;
211;SDS011;16228;48.800;9.002;2022-12-18T06:03:49;37.47;;;16.97;;
211;SDS011;16228;48.800;9.002;2022-12-18T06:06:18;28.80;;;15.60;;
211;SDS011;16228;48.800;9.002;2022-12-18T06:08:46;32.50;;;16.33;;
211;SDS011;16228;48.800;9.002;2022-12-18T06:11:16;31.93;;;16.47;;
211;SDS011;16228;48.800;9.002;2022-12-18T06:13:44;34.17;;;17.70;;
211;SDS011;16228;48.800;9.002;2022-12-18T06:16:12;37.33;;;19.00;;
211;SDS011;16228;48.800;9.002;2022-12-18T06:18:41;31.00;;;16.70;;
211;SDS011;16228;48.800;9.002;2022-12-18T06:21:08;34.87;;;17.63;;
211;SDS011;16228;48.800;9.002;2022-12-18T06:23:36;34.87;;;17.97;;
211;SDS011;16228;48.800;9.002;2022-12-18T06:26:04;36.00;;;18.20;;
211;SDS011;16228;48.800;9.002;2022-12-18T06:28:32;34.10;;;17.83;;
211;SDS011;16228;48.800;9.002;2022-12-18T06:30:59;34.23;;;17.17;;
211;SDS011;16228;48.800;9.002;2022-12-18T06:33:27;34.60;;;17.93;;
211;SDS011;16228;48.800;9.002;2022-12-18T06:35:58;30.00;;;16.17;;
211;SDS011;16228;48.800;9.002;2022-12-18T06:38:27;30.00;;;16.97;;
211;SDS011;16228;48.800;9.002;2022-12-18T06:40:54;31.37;;;15.13;;
211;SDS011;16228;48.800;9.002;2022-12-18T06:43:21;35.57;;;18.57;;
211;SDS011;16228;48.800;9.002;2022-12-18T06:45:48;32.40;;;15.47;;
211;SDS011;16228;48.800;9.002;2022-12-18T06:48:18;36.00;;;18.60;;
211;SDS011;16228;48.800;9.002;2022-12-18T06:50:45;32.57;;;16.60;;
211;SDS011;16228;48.800;9.002;2022-12-18T06:53:14;32.10;;;17.20;;
211;SDS011;16228;48.800;9.002;2022-12-18T06:55:41;32.70;;;17.10;;
211;SDS011;16228;48.800;9.002;2022-12-18T06:58:09;34.40;;;16.83;;
211;SDS011;16228;48.800;9.002;2022-12-18T07:00:36;32.27;;;16.63;;
211;SDS011;16228;48.800;9.002;2022-12-18T07:03:03;30.67;;;14.90;;
211;SDS011;16228;48.800;9.002;2022-12-18T07:05:30;28.60;;;15.83;;
211;SDS011;16228;48.800;9.002;2022-12-18T07:07:58;36.03;;;17.20;;
211;SDS011;16228;48.800;9.002;2022-12-18T07:10:27;36.83;;;18.97;;
211;SDS011;16228;48.800;9.002;2022-12-18T07:12:54;33.70;;;15.40;;
211;SDS011;16228;48.800;9.002;2022-12-18T07:15:21;29.13;;;15.47;;
211;SDS011;16228;48.800;9.002;2022-12-18T07:17:48;34.50;;;17.70;;
211;SDS011;16228;48.800;9.002;2022-12-18T07:20:16;31.47;;;16.07;;
211;SDS011;16228;48.800;9.002;2022-12-18T07:22:43;39.80;;;18.97;;
211;SDS011;16228;48.800;9.002;2022-12-18T07:25:10;29.43;;;17.50;;
211;SDS011;16228;48.800;9.002;2022-12-18T07:27:39;35.67;;;17.70;;
211;SDS011;16228;48.800;9.002;2022-12-18T07:30:07;37.90;;;17.10;;
211;SDS011;16228;48.800;9.002;2022-12-18T07:32:35;30.80;;;15.60;;
211;SDS011;16228;48.800;9.002;2022-12-18T07:35:02;32.93;;;16.93;;
211;SDS011;16228;48.800;9.002;2022-12-18T07:37:30;39.73;;;19.57;;
211;SDS011;16228;48.800;9.002;2022-12-18T07:39:57;31.83;;;17.13;;
211;SDS011;16228;48.800;9.002;2022-12-18T07:42:24;34.13;;;16.17;;
211;SDS011;16228;48.800;9.002;2022-12-18T07:44:59;30.73;;;16.97;;
211;SDS011;16228;48.800;9.002;2022-12-18T07:47:26;34.10;;;18.03;;
211;SDS011;16228;48.800;9.002;2022-12-18T07:49:54;34.87;;;17.73;;
211;SDS011;16228;48.800;9.002;2022-12-18T07:52:24;36.13;;;18.63;;
211;SDS011;16228;48.800;9.002;2022-12-18T07:54:51;33.70;;;17.40;;
211;SDS011;16228;48.800;9.002;2022-12-18T07:57:19;33.13;;;17.80;;
211;SDS011;16228;48.800;9.002;2022-12-18T07:59:46;33.23;;;16.63;;
211;SDS011;16228;48.800;9.002;2022-12-18T08:02:14;32.50;;;17.67;;
211;SDS011;16228;48.800;9.002;2022-12-18T08:04:41;29.87;;;16.77;;
211;SDS011;16228;48.800;9.002;2022-12-18T08:07:09;36.87;;;17.57;;
211;SDS011;16228;48.800;9.002;2022-12-18T08:09:36;35.93;;;17.67;;
211;SDS011;16228;48.800;9.002;2022-12-18T08:12:03;34.30;;;17.33;;
211;SDS011;16228;48.800;9.002;2022-12-18T08:14:31;36.60;;;17.27;;
211;SDS011;16228;48.800;9.002;2022-12-18T08:16:58;33.67;;;15.97;;
211;SDS011;16228;48.800;9.002;2022-12-18T08:19:27;37.87;;;17.60;;
211;SDS011;16228;48.800;9.002;2022-12-18T08:21:54;32.40;;;16.63;;
211;SDS011;16228;48.800;9.002;2022-12-18T08:24:22;35.87;;;18.00;;
211;SDS011;16228;48.800;9.002;2022-12-18T08:26:49;34.43;;;17.80;;
211;SDS011;16228;48.800;9.002;2022-12-18T08:29:16;27.40;;;17.07;;
211;SDS011;16228;48.800;9.002;2022-12-18T08:31:43;37.80;;;18.63;;
211;SDS011;16228;48.800;9.002;2022-12-18T08:34:11;33.77;;;17.77;;
211;SDS011;16228;48.800;9.002;2022-12-18T08:36:39;34.07;;;18.70;;
211;SDS011;16228;48.800;9.002;2022-12-18T08:39:07;31.60;;;17.17;;
211;SDS011;16228;48.800;9.002;2022-12-18T08:41:34;34.53;;;17.03;;
211;SDS011;16228;48.800;9.002;2022-12-18T08:44:01;33.73;;;17.93;;
211;SDS011;16228;48.800;9.002;2022-12-18T08:46:51;32.07;;;17.53;;
211;SDS011;16228;48.800;9.002;2022-12-18T08:49:19;35.17;;;17.90;;
211;SDS011;16228;48.800;9.002;2022-12-18T08:51:47;29.87;;;16.57;;
211;SDS011;16228;48.800;9.002;2022-12-18T08:54:14;30.87;;;16.33;;
211;SDS011;16228;48.800;9.002;2022-12-18T08:56:41;34.93;;;18.40;;
211;SDS011;16228;48.800;9.002;2022-12-18T08:59:09;28.40;;;16.17;;
211;SDS011;16228;48.800;9.002;2022-12-18T09:01:36;30.10;;;16.13;;
211;SDS011;16228;48.800;9.002;2022-12-18T09:04:03;31.33;;;16.47;;
211;SDS011;16228;48.800;9.002;2022-12-18T09:06:30;32.40;;;17.83;;
211;SDS011;16228;48.800;9.002;2022-12-18T09:08:59;33.83;;;18.17;;
211;SDS011;16228;48.800;9.002;2022-12-18T09:11:27;30.37;;;16.73;;
211;SDS011;16228;48.800;9.002;2022-12-18T09:13:55;38.80;;;18.57;;
211;SDS011;16228;48.800;9.002;2022-12-18T09:16:23;31.77;;;17.07;;
211;SDS011;16228;48.800;9.002;2022-12-18T09:18:51;31.30;;;17.63;;
211;SDS011;16228;48.800;9.002;2022-12-18T09:21:24;29.27;;;16.93;;
211;SDS011;16228;48.800;9.002;2022-12-18T09:23:53;33.43;;;17.03;;
211;SDS011;16228;48.800;9.002;2022-12-18T09:26:22;31.60;;;17.47;;
211;SDS011;16228;48.800;9.002;2022-12-18T09:28:51;29.30;;;16.67;;
211;SDS011;16228;48.800;9.002;2022-12-18T09:31:19;29.97;;;16.57;;
211;SDS011;16228;48.800;9.002;2022-12-18T09:33:48;30.30;;;17.30;;
211;SDS011;16228;48.800;9.002;2022-12-18T09:36:15;30.30;;;16.87;;
211;SDS011;16228;48.800;9.002;2022-12-18T09:38:44;26.37;;;16.23;;
211;SDS011;16228;48.800;9.002;2022-12-18T09:41:15;25.47;;;16.10;;
211;SDS011;16228;48.800;9.002;2022-12-18T09:44:00;27.33;;;16.37;;
211;SDS011;16228;48.800;9.002;2022-12-18T09:46:33;28.10;;;16.13;;
211;SDS011;16228;48.800;9.002;2022-12-18T09:49:02;25.83;;;16.73;;
211;SDS011;16228;48.800;9.002;2022-12-18T09:51:35;24.70;;;16.03;;
211;SDS011;16228;48.800;9.002;2022-12-18T09:54:18;26.00;;;16.07;;
211;SDS011;16228;48.800;9.002;2022-12-18T09:56:50;27.63;;;16.93;;
211;SDS011;16228;48.800;9.002;2022-12-18T09:59:20;27.03;;;16.63;;
211;SDS011;16228;48.800;9.002;2022-12-18T10:01:50;25.93;;;17.43;;
211;SDS011;16228;48.800;9.002;2022-12-18T10:04:18;24.83;;;15.97;;
211;SDS011;16228;48.800;9.002;2022-12-18T10:06:46;26.10;;;16.33;;
211;SDS011;16228;48.800;9.002;2022-12-18T10:09:20;26.63;;;17.13;;
211;SDS011;16228;48.800;9.002;2022-12-18T10:11:56;27.73;;;16.77;;
211;SDS011;16228;48.800;9.002;2022-12-18T10:14:35;23.20;;;15.57;;
211;SDS011;16228;48.800;9.002;2022-12-18T10:17:11;21.70;;;15.57;;
211;SDS011;16228;48.800;9.002;2022-12-18T10:19:47;25.13;;;17.27;;
211;SDS011;16228;48.800;9.002;2022-12-18T10:22:22;23.83;;;15.37;;
211;SDS011;16228;48.800;9.002;2022-12-18T10:25:02;23.33;;;15.67;;
211;SDS011;16228;48.800;9.002;2022-12-18T10:27:38;23.73;;;15.47;;
211;SDS011;16228;48.800;9.002;2022-12-18T10:30:08;21.60;;;14.87;;
211;SDS011;16228;48.800;9.002;2022-12-18T10:32:40;20.20;;;14.40;;
211;SDS011;16228;48.800;9.002;2022-12-18T10:35:08;22.73;;;15.77;;
211;SDS011;16228;48.800;9.002;2022-12-18T10:40:47;20.70;;;15.50;;
211;SDS011;16228;48.800;9.002;2022-12-18T10:43:20;20.40;;;14.47;;
211;SDS011;16228;48.800;9.002;2022-12-18T10:48:50;23.77;;;17.37;;
211;SDS011;16228;48.800;9.002;2022-12-18T10:51:20;22.37;;;16.53;;
211;SDS011;16228;48.800;9.002;2022-12-18T10:53:52;24.93;;;16.37;;
211;SDS011;16228;48.800;9.002;2022-12-18T10:56:22;22.33;;;16.33;;
211;SDS011;16228;48.800;9.002;2022-12-18T10:58:57;22.40;;;16.57;;
211;SDS011;16228;48.800;9.002;2022-12-18T11:01:26;20.03;;;15.73;;
211;SDS011;16228;48.800;9.002;2022-12-18T11:04:01;23.63;;;16.70;;
211;SDS011;16228;48.800;9.002;2022-12-18T11:06:34;21.23;;;15.60;;
211;SDS011;16228;48.800;9.002;2022-12-18T11:09:20;22.03;;;16.13;;
211;SDS011;16228;48.800;9.002;2022-12-18T11:11:49;22.07;;;16.73;;
211;SDS011;16228;48.800;9.002;2022-12-18T11:14:21;22.23;;;16.57;;
211;SDS011;16228;48.800;9.002;2022-12-18T11:16:50;23.90;;;16.27;;
211;SDS011;16228;48.800;9.002;2022-12-18T11:19:25;22.60;;;16.90;;
211;SDS011;16228;48.800;9.002;2022-12-18T11:21:56;21.90;;;16.93;;
211;SDS011;16228;48.800;9.002;2022-12-18T11:24:26;21.00;;;15.67;;
211;SDS011;16228;48.800;9.002;2022-12-18T11:26:57;22.23;;;16.27;;
211;SDS011;16228;48.800;9.002;2022-12-18T11:29:30;21.87;;;14.83;;
211;SDS011;16228;48.800;9.002;2022-12-18T11:32:19;20.27;;;15.40;;
211;SDS011;16228;48.800;9.002;2022-12-18T11:34:58;23.63;;;16.07;;
211;SDS011;16228;48.800;9.002;2022-12-18T11:37:28;22.57;;;15.03;;
211;SDS011;16228;48.800;9.002;2022-12-18T11:39:58;21.00;;;15.17;;
211;SDS011;16228;48.800;9.002;2022-12-18T11:42:32;21.20;;;15.03;;
211;SDS011;16228;48.800;9.002;2022-12-18T11:45:14;20.67;;;14.73;;
211;SDS011;16228;48.800;9.002;2022-12-18T11:47:52;23.63;;;14.73;;
211;SDS011;16228;48.800;9.002;2022-12-18T11:50:25;19.57;;;13.83;;
211;SDS011;16228;48.800;9.002;2022-12-18T11:52:56;20.73;;;14.67;;
211;SDS011;16228;48.800;9.002;2022-12-18T11:55:26;20.97;;;14.17;;
211;SDS011;16228;48.800;9.002;2022-12-18T11:58:00;21.80;;;13.87;;
211;SDS011;16228;48.800;9.002;2022-12-18T12:00:33;21.23;;;15.83;;
211;SDS011;16228;48.800;9.002;2022-12-18T12:03:19;22.43;;;15.07;;
211;SDS011;16228;48.800;9.002;2022-12-18T12:05:59;18.63;;;13.53;;
211;SDS011;16228;48.800;9.002;2022-12-18T12:08:37;21.03;;;14.23;;
211;SDS011;16228;48.800;9.002;2022-12-18T12:11:19;21.63;;;13.67;;
211;SDS011;16228;48.800;9.002;2022-12-18T12:14:00;20.10;;;13.30;;
211;SDS011;16228;48.800;9.002;2022-12-18T12:16:42;25.43;;;15.33;;
211;SDS011;16228;48.800;9.002;2022-12-18T12:19:19;21.37;;;14.10;;
211;SDS011;16228;48.800;9.002;2022-12-18T12:21:58;21.83;;;15.00;;
211;SDS011;16228;48.800;9.002;2022-12-18T12:24:34;21.07;;;13.93;;
211;SDS011;16228;48.800;9.002;2022-12-18T12:27:18;21.23;;;14.20;;
211;SDS011;16228;48.800;9.002;2022-12-18T12:29:58;21.30;;;14.13;;
211;SDS011;16228;48.800;9.002;2022-12-18T12:32:36;21.40;;;14.27;;
211;SDS011;16228;48.800;9.002;2022-12-18T12:35:29;21.90;;;14.83;;
211;SDS011;16228;48.800;9.002;2022-12-18T12:38:06;21.10;;;14.40;;
211;SDS011;16228;48.800;9.002;2022-12-18T12:40:39;21.00;;;14.13;;
211;SDS011;16228;48.800;9.002;2022-12-18T12:43:15;22.50;;;14.27;;
211;SDS011;16228;48.800;9.002;2022-12-18T12:45:49;22.67;;;14.47;;
211;SDS011;16228;48.800;9.002;2022-12-18T12:48:24;25.27;;;16.53;;
211;SDS011;16228;48.800;9.002;2022-12-18T12:51:00;25.33;;;16.80;;
211;SDS011;16228;48.800;9.002;2022-12-18T12:53:32;27.43;;;17.40;;
211;SDS011;16228;48.800;9.002;2022-12-18T12:56:04;27.00;;;16.50;;
211;SDS011;16228;48.800;9.002;2022-12-18T12:58:34;27.00;;;15.67;;
211;SDS011;16228;48.800;9.002;2022-12-18T13:01:10;26.23;;;16.13;;
211;SDS011;16228;48.800;9.002;2022-12-18T13:03:46;24.27;;;16.13;;
211;SDS011;16228;48.800;9.002;2022-12-18T13:06:23;26.93;;;17.17;;
211;SDS011;16228;48.800;9.002;2022-12-18T13:08:59;24.00;;;15.87;;
211;SDS011;16228;48.800;9.002;2022-12-18T13:11:34;26.83;;;16.17;;
211;SDS011;16228;48.800;9.002;2022-12-18T13:14:21;24.47;;;16.00;;
211;SDS011;16228;48.800;9.002;2022-12-18T13:16:50;26.73;;;15.97;;
211;SDS011;16228;48.800;9.002;2022-12-18T13:19:25;30.37;;;16.93;;
211;SDS011;16228;48.800;9.002;2022-12-18T13:21:53;28.93;;;17.53;;
211;SDS011;16228;48.800;9.002;2022-12-18T13:24:23;25.87;;;16.67;;
211;SDS011;16228;48.800;9.002;2022-12-18T13:26:52;26.53;;;16.77;;
211;SDS011;16228;48.800;9.002;2022-12-18T13:32:19;26.23;;;17.20;;
211;SDS011;16228;48.800;9.002;2022-12-18T13:34:49;27.80;;;17.23;;
211;SDS011;16228;48.800;9.002;2022-12-18T13:38:22;29.43;;;17.33;;
211;SDS011;16228;48.800;9.002;2022-12-18T13:40:53;26.90;;;16.70;;
211;SDS011;16228;48.800;9.002;2022-12-18T13:43:32;30.30;;;17.67;;
211;SDS011;16228;48.800;9.002;2022-12-18T13:46:06;28.53;;;17.23;;
211;SDS011;16228;48.800;9.002;2022-12-18T13:48:50;26.97;;;17.73;;
211;SDS011;16228;48.800;9.002;2022-12-18T13:51:20;27.37;;;16.93;;
211;SDS011;16228;48.800;9.002;2022-12-18T13:53:50;28.63;;;18.47;;
211;SDS011;16228;48.800;9.002;2022-12-18T13:56:22;32.00;;;18.67;;
211;SDS011;16228;48.800;9.002;2022-12-18T14:01:47;30.37;;;18.53;;
211;SDS011;16228;48.800;9.002;2022-12-18T14:04:18;32.13;;;17.97;;
211;SDS011;16228;48.800;9.002;2022-12-18T14:06:49;32.30;;;19.23;;
211;SDS011;16228;48.800;9.002;2022-12-18T14:09:21;31.67;;;18.80;;
211;SDS011;16228;48.800;9.002;2022-12-18T14:11:51;31.63;;;19.80;;
211;SDS011;16228;48.800;9.002;2022-12-18T14:14:41;33.77;;;20.20;;
211;SDS011;16228;48.800;9.002;2022-12-18T14:17:10;33.70;;;20.67;;
211;SDS011;16228;48.800;9.002;2022-12-18T14:19:41;33.53;;;19.67;;
211;SDS011;16228;48.800;9.002;2022-12-18T14:22:16;34.57;;;19.93;;
211;SDS011;16228;48.800;9.002;2022-12-18T14:24:47;33.57;;;19.57;;
211;SDS011;16228;48.800;9.002;2022-12-18T14:27:31;36.57;;;22.10;;
211;SDS011;16228;48.800;9.002;2022-12-18T14:30:15;33.83;;;19.83;;
211;SDS011;16228;48.800;9.002;2022-12-18T14:32:59;29.73;;;18.13;;
211;SDS011;16228;48.800;9.002;2022-12-18T14:35:27;34.10;;;21.27;;
211;SDS011;16228;48.800;9.002;2022-12-18T14:38:07;39.90;;;22.70;;
211;SDS011;16228;48.800;9.002;2022-12-18T14:40:47;37.50;;;20.67;;
211;SDS011;16228;48.800;9.002;2022-12-18T14:43:18;36.67;;;21.53;;
211;SDS011;16228;48.800;9.002;2022-12-18T14:45:45;38.77;;;22.17;;
211;SDS011;16228;48.800;9.002;2022-12-18T14:48:15;39.20;;;21.67;;
211;SDS011;16228;48.800;9.002;2022-12-18T14:50:43;40.80;;;21.70;;
211;SDS011;16228;48.800;9.002;2022-12-18T14:53:18;40.03;;;21.63;;
211;SDS011;16228;48.800;9.002;2022-12-18T14:55:50;41.17;;;21.80;;
211;SDS011;16228;48.800;9.002;2022-12-18T14:58:17;38.63;;;21.00;;
211;SDS011;16228;48.800;9.002;2022-12-18T15:00:45;35.77;;;19.77;;
211;SDS011;16228;48.800;9.002;2022-12-18T15:03:13;41.10;;;23.23;;
211;SDS011;16228;48.800;9.002;2022-12-18T15:05:45;41.07;;;22.77;;
211;SDS011;16228;48.800;9.002;2022-12-18T15:08:29;36.83;;;20.50;;
211;SDS011;16228;48.800;9.002;2022-12-18T15:11:02;38.17;;;21.67;;
211;SDS011;16228;48.800;9.002;2022-12-18T15:13:29;42.40;;;21.47;;
211;SDS011;16228;48.800;9.002;2022-12-18T15:15:57;39.43;;;20.87;;
211;SDS011;16228;48.800;9.002;2022-12-18T15:18:29;42.33;;;22.53;;
211;SDS011;16228;48.800;9.002;2022-12-18T15:20:59;41.27;;;21.67;;
211;SDS011;16228;48.800;9.002;2022-12-18T15:23:35;38.20;;;21.20;;